createdAt,value
2022-12-13T00:01:45.741Z,-8.00
2022-12-13T00:04:13.751Z,-8.70
2022-12-13T00:06:40.833Z,-8.10
2022-12-13T00:09:07.621Z,-8.60
2022-12-13T00:11:34.578Z,-8.70
2022-12-13T00:14:01.862Z,-9.00
2022-12-13T00:16:28.984Z,-9.10
2022-12-13T00:18:57.937Z,-9.20
2022-12-13T00:21:27.564Z,-9.30
2022-12-13T00:23:55.020Z,-9.20
2022-12-13T00:26:24.648Z,-9.00
2022-12-13T00:28:52.876Z,-9.00
2022-12-13T00:31:53.544Z,-8.90
2022-12-13T00:36:34.624Z,-9.00
2022-12-13T00:39:01.543Z,-9.00
2022-12-13T00:41:31.254Z,-9.00
2022-12-13T00:43:58.690Z,-9.00
2022-12-13T00:46:26.550Z,-8.90
2022-12-13T00:48:56.038Z,-9.00
2022-12-13T00:51:24.000Z,-9.00
2022-12-13T00:53:51.299Z,-9.10
2022-12-13T00:56:21.847Z,-7.80
2022-12-13T00:58:52.071Z,-9.20
2022-12-13T01:01:24.646Z,-9.00
2022-12-13T01:03:53.328Z,-8.60
2022-12-13T01:06:22.970Z,-8.60
2022-12-13T01:08:49.738Z,-8.50
2022-12-13T01:11:17.826Z,-9.40
2022-12-13T01:13:44.932Z,-9.80
2022-12-13T01:16:13.513Z,-9.30
2022-12-13T01:18:41.319Z,-9.90
2022-12-13T01:21:13.232Z,-9.60
2022-12-13T01:23:40.399Z,-9.50
2022-12-13T01:26:10.632Z,-9.40
2022-12-13T01:28:37.390Z,-8.80
2022-12-13T01:31:07.829Z,-9.40
2022-12-13T01:33:35.463Z,-9.40
2022-12-13T01:36:04.774Z,-9.10
2022-12-13T01:38:31.717Z,-9.40
2022-12-13T01:41:16.860Z,-8.70
2022-12-13T01:43:45.036Z,-9.30
2022-12-13T01:46:13.551Z,-9.30
2022-12-13T01:48:52.327Z,-9.40
2022-12-13T01:51:25.026Z,-9.50
2022-12-13T01:53:52.689Z,-9.50
2022-12-13T01:56:24.974Z,-9.60
2022-12-13T01:58:53.866Z,-9.70
2022-12-13T02:01:22.324Z,-9.90
2022-12-13T02:03:49.041Z,-10.30
2022-12-13T02:06:26.411Z,-10.10
2022-12-13T02:08:53.296Z,-9.90
2022-12-13T02:11:20.102Z,-9.90
2022-12-13T02:13:46.805Z,-9.90
2022-12-13T02:16:48.446Z,-9.80
2022-12-13T02:19:46.310Z,-9.70
2022-12-13T02:22:30.920Z,-9.70
2022-12-13T02:25:19.309Z,-8.80
2022-12-13T02:28:30.763Z,-9.40
2022-12-13T02:31:09.090Z,-9.70
2022-12-13T02:33:45.382Z,-8.90
2022-12-13T02:36:38.323Z,-9.60
2022-12-13T02:39:14.166Z,-9.90
2022-12-13T02:42:04.687Z,-9.50
2022-12-13T02:44:40.248Z,-9.60
2022-12-13T02:47:21.936Z,-9.60
2022-12-13T02:49:54.054Z,-9.80
2022-12-13T02:52:24.622Z,-9.10
2022-12-13T02:54:53.562Z,-9.10
2022-12-13T02:57:38.576Z,-10.00
2022-12-13T03:00:10.626Z,-10.10
2022-12-13T03:02:57.223Z,-10.10
2022-12-13T03:06:05.696Z,-10.00
2022-12-13T03:08:55.065Z,-9.90
2022-12-13T03:11:25.367Z,-9.80
2022-12-13T03:13:59.123Z,-9.80
2022-12-13T03:16:40.425Z,-9.80
2022-12-13T03:19:10.478Z,-9.90
2022-12-13T03:21:47.363Z,-9.90
2022-12-13T03:24:17.822Z,-9.90
2022-12-13T03:26:45.982Z,-9.60
2022-12-13T03:29:13.014Z,-10.10
2022-12-13T03:31:39.864Z,-9.40
2022-12-13T03:34:06.636Z,-10.10
2022-12-13T03:36:33.659Z,-10.00
2022-12-13T03:39:00.449Z,-9.20
2022-12-13T03:41:31.705Z,-9.90
2022-12-13T03:44:08.591Z,-9.50
2022-12-13T03:46:35.722Z,-10.20
2022-12-13T03:49:02.602Z,-10.30
2022-12-13T03:51:29.325Z,-10.40
2022-12-13T03:53:56.050Z,-10.20
2022-12-13T03:56:22.836Z,-10.20
2022-12-13T03:58:49.589Z,-9.80
2022-12-13T04:01:17.180Z,-9.60
2022-12-13T04:03:45.570Z,-10.10
2022-12-13T04:06:13.520Z,-9.80
2022-12-13T04:08:50.968Z,-10.20
2022-12-13T04:11:42.961Z,-9.50
2022-12-13T04:14:11.543Z,-10.10
2022-12-13T04:16:38.330Z,-9.50
2022-12-13T04:19:05.125Z,-9.80
2022-12-13T04:21:31.804Z,-10.20
2022-12-13T04:24:00.757Z,-10.20
2022-12-13T04:26:28.498Z,-10.00
2022-12-13T04:28:55.422Z,-10.10
2022-12-13T04:31:22.500Z,-10.20
2022-12-13T04:33:49.229Z,-10.30
2022-12-13T04:36:31.042Z,-10.40
2022-12-13T04:39:00.572Z,-10.50
2022-12-13T04:41:34.328Z,-10.10
2022-12-13T04:44:02.419Z,-10.40
2022-12-13T04:46:29.355Z,-10.40
2022-12-13T04:48:56.103Z,-10.60
2022-12-13T04:51:22.972Z,-10.70
2022-12-13T04:53:50.175Z,-10.70
2022-12-13T04:56:17.047Z,-10.40
2022-12-13T04:58:43.822Z,-10.60
2022-12-13T05:01:11.404Z,-10.60
2022-12-13T05:03:39.089Z,-10.60
2022-12-13T05:06:26.647Z,-10.50
2022-12-13T05:08:54.868Z,-10.40
2022-12-13T05:11:28.122Z,-10.70
2022-12-13T05:14:02.950Z,-10.60
2022-12-13T05:16:29.761Z,-10.60
2022-12-13T05:18:56.476Z,-10.80
2022-12-13T05:21:23.209Z,-10.50
2022-12-13T05:23:49.935Z,-10.60
2022-12-13T05:26:16.649Z,-10.70
2022-12-13T05:28:43.362Z,-10.50
2022-12-13T05:31:23.039Z,-10.60
2022-12-13T05:33:54.310Z,-10.60
2022-12-13T05:36:28.673Z,-10.60
2022-12-13T05:38:55.376Z,-10.50
2022-12-13T05:41:26.918Z,-10.50
2022-12-13T05:43:53.690Z,-10.80
2022-12-13T05:46:20.514Z,-10.60
2022-12-13T05:48:47.300Z,-10.60
2022-12-13T05:51:14.043Z,-10.60
2022-12-13T05:53:42.224Z,-10.50
2022-12-13T05:56:10.368Z,-10.50
2022-12-13T05:58:38.807Z,-10.60
2022-12-13T06:01:11.026Z,-10.70
2022-12-13T06:03:38.311Z,-10.50
2022-12-13T06:06:06.725Z,-10.50
2022-12-13T06:08:33.533Z,-10.40
2022-12-13T06:11:11.615Z,-10.60
2022-12-13T06:13:42.945Z,-10.60
2022-12-13T06:16:21.944Z,-10.80
2022-12-13T06:18:50.635Z,-10.50
2022-12-13T06:21:17.829Z,-10.90
2022-12-13T06:23:44.545Z,-10.90
2022-12-13T06:26:11.259Z,-11.00
2022-12-13T06:28:37.983Z,-11.00
2022-12-13T06:31:05.374Z,-11.00
2022-12-13T06:33:36.065Z,-9.90
2022-12-13T06:36:03.977Z,-10.90
2022-12-13T06:38:32.353Z,-10.70
2022-12-13T06:41:13.881Z,-11.00
2022-12-13T06:43:48.160Z,-10.70
2022-12-13T06:46:15.732Z,-10.80
2022-12-13T06:48:42.537Z,-10.70
2022-12-13T06:51:10.007Z,-10.70
2022-12-13T06:53:39.177Z,-10.80
2022-12-13T06:56:13.738Z,-10.60
2022-12-13T06:58:41.846Z,-10.80
2022-12-13T07:01:24.907Z,-10.30
2022-12-13T07:03:54.866Z,-10.90
2022-12-13T07:06:25.311Z,-11.10
2022-12-13T07:08:55.367Z,-10.30
2022-12-13T07:11:27.726Z,-11.00
2022-12-13T07:13:55.166Z,-10.40
2022-12-13T07:16:23.304Z,-10.90
2022-12-13T07:19:00.987Z,-10.90
2022-12-13T07:21:29.550Z,-10.70
2022-12-13T07:23:56.536Z,-11.00
2022-12-13T07:26:23.698Z,-11.20
2022-12-13T07:28:55.125Z,-11.10
2022-12-13T07:31:24.275Z,-10.50
2022-12-13T07:33:51.498Z,-10.90
2022-12-13T07:36:20.950Z,-9.60
2022-12-13T07:38:55.854Z,-9.70
2022-12-13T07:41:27.107Z,-10.50
2022-12-13T07:43:55.882Z,-10.20
2022-12-13T07:46:32.655Z,-9.50
2022-12-13T07:49:04.411Z,-9.50
2022-12-13T07:51:34.394Z,-9.80
2022-12-13T07:54:01.345Z,-10.20
2022-12-13T07:56:34.062Z,-9.90
2022-12-13T07:59:00.812Z,-9.30
2022-12-13T08:01:28.519Z,-9.80
2022-12-13T08:03:55.313Z,-8.90
2022-12-13T08:06:22.086Z,-9.40
2022-12-13T08:08:51.179Z,-9.50
2022-12-13T08:11:18.192Z,-9.60
2022-12-13T08:13:45.094Z,-8.60
2022-12-13T08:16:27.240Z,-9.20
2022-12-13T08:19:01.803Z,-9.30
2022-12-13T08:21:54.440Z,-9.30
2022-12-13T08:24:28.127Z,-9.30
2022-12-13T08:27:02.331Z,-9.40
2022-12-13T08:29:34.219Z,-8.90
2022-12-13T08:32:08.827Z,-8.50
2022-12-13T08:34:35.653Z,-9.30
2022-12-13T08:37:03.835Z,-8.50
2022-12-13T08:39:34.230Z,-8.90
2022-12-13T08:42:14.678Z,-8.90
2022-12-13T08:44:51.678Z,-9.20
2022-12-13T08:47:24.396Z,-8.60
2022-12-13T08:50:02.517Z,-9.00
2022-12-13T08:52:31.474Z,-8.80
2022-12-13T08:54:58.303Z,-7.90
2022-12-13T08:57:25.050Z,-8.20
2022-12-13T08:59:51.796Z,-8.20
2022-12-13T09:02:18.663Z,-7.80
2022-12-13T09:04:45.519Z,-7.80
2022-12-13T09:07:12.922Z,-8.30
2022-12-13T09:09:39.675Z,-7.80
2022-12-13T09:12:10.880Z,-7.50
2022-12-13T09:14:45.184Z,-7.10
2022-12-13T09:17:24.197Z,-6.80
2022-12-13T09:19:58.516Z,-6.80
2022-12-13T09:22:33.478Z,-5.90
2022-12-13T09:25:02.807Z,-5.70
2022-12-13T09:27:39.987Z,-6.30
2022-12-13T09:30:09.000Z,-6.20
2022-12-13T09:32:35.722Z,-5.80
2022-12-13T09:35:02.500Z,-5.30
2022-12-13T09:37:30.281Z,-5.30
2022-12-13T09:39:57.029Z,-5.60
2022-12-13T09:42:30.506Z,-6.00
2022-12-13T09:45:04.290Z,-4.90
2022-12-13T09:47:36.006Z,-5.10
2022-12-13T09:50:26.409Z,-5.30
2022-12-13T09:53:00.286Z,-5.00
2022-12-13T09:58:01.186Z,-5.00
2022-12-13T10:00:35.205Z,-5.30
2022-12-13T10:05:33.719Z,-4.90
2022-12-13T10:08:14.074Z,-4.60
2022-12-13T10:10:41.312Z,-4.90
2022-12-13T10:13:07.983Z,-4.50
2022-12-13T10:15:38.448Z,-4.70
2022-12-13T10:18:07.015Z,-4.60
2022-12-13T10:20:34.823Z,-4.50
2022-12-13T10:23:31.454Z,-4.50
2022-12-13T10:26:03.346Z,-4.50
2022-12-13T10:28:33.181Z,-4.50
2022-12-13T10:31:01.353Z,-4.60
2022-12-13T10:33:36.284Z,-4.30
2022-12-13T10:36:30.625Z,-4.00
2022-12-13T10:38:57.637Z,-4.10
2022-12-13T10:44:20.959Z,-3.40
2022-12-13T10:46:54.249Z,-3.20
2022-12-13T10:49:29.763Z,-3.40
2022-12-13T10:51:58.177Z,-3.10
2022-12-13T10:54:38.642Z,-3.20
2022-12-13T11:04:52.158Z,-2.00
2022-12-13T11:09:54.722Z,-1.00
2022-12-13T11:12:24.647Z,-1.20
2022-12-13T11:14:56.933Z,-1.20
2022-12-13T11:17:26.914Z,-1.00
2022-12-13T11:19:56.303Z,-0.70
2022-12-13T11:22:30.352Z,-0.40
2022-12-13T11:25:05.909Z,0.30
2022-12-13T11:27:38.838Z,-0.30
2022-12-13T11:51:22.044Z,0.50
2022-12-13T11:54:00.195Z,0.40
2022-12-13T12:02:06.944Z,2.10
2022-12-13T12:04:56.461Z,2.30
2022-12-13T12:07:34.282Z,3.60
2022-12-13T12:15:30.002Z,4.70
2022-12-13T12:17:57.270Z,5.00
2022-12-13T12:20:52.082Z,4.50
2022-12-13T12:24:02.683Z,5.10
2022-12-13T12:26:49.135Z,6.60
2022-12-13T12:30:01.925Z,7.10
2022-12-13T12:32:42.581Z,6.80
2022-12-13T12:35:20.939Z,7.10
2022-12-13T12:38:25.488Z,7.20
2022-12-13T12:41:20.370Z,6.10
2022-12-13T12:44:03.651Z,6.20
2022-12-13T12:49:42.222Z,7.60
2022-12-13T12:52:37.012Z,7.40
2022-12-13T12:55:22.888Z,8.70
2022-12-13T12:57:55.739Z,9.50
2022-12-13T13:00:24.990Z,9.10
2022-12-13T13:03:01.547Z,7.20
2022-12-13T13:06:01.941Z,7.80
2022-12-13T13:08:55.363Z,7.50
2022-12-13T13:11:27.874Z,8.50
2022-12-13T13:14:01.771Z,8.80
2022-12-13T13:19:16.525Z,8.60
2022-12-13T13:22:01.331Z,6.90
2022-12-13T13:24:33.071Z,8.60
2022-12-13T13:27:29.821Z,8.00
2022-12-13T13:30:15.386Z,10.30
2022-12-13T13:32:42.335Z,10.10
2022-12-13T13:35:35.542Z,9.90
2022-12-13T13:38:24.317Z,9.60
2022-12-13T13:43:32.675Z,7.10
2022-12-13T13:46:08.901Z,7.40
2022-12-13T13:48:41.706Z,7.90
2022-12-13T13:51:49.411Z,8.30
2022-12-13T13:55:06.084Z,5.60
2022-12-13T13:58:10.624Z,5.60
2022-12-13T14:01:20.779Z,6.40
2022-12-13T14:04:21.413Z,7.30
2022-12-13T14:07:03.778Z,6.40
2022-12-13T14:09:47.181Z,4.60
2022-12-13T14:15:50.242Z,2.50
2022-12-13T14:18:54.935Z,1.60
2022-12-13T14:24:22.354Z,0.20
2022-12-13T14:29:37.384Z,0.20
2022-12-13T15:05:04.218Z,-2.50
2022-12-13T15:10:02.005Z,-2.80
2022-12-13T15:17:39.361Z,-3.30
2022-12-13T15:38:03.939Z,-4.30
2022-12-13T15:42:58.025Z,-4.30
2022-12-13T15:45:33.149Z,-4.20
2022-12-13T15:48:01.746Z,-4.50
2022-12-13T15:53:06.373Z,-4.60
2022-12-13T15:55:35.715Z,-5.00
2022-12-13T16:00:34.849Z,-5.00
2022-12-13T16:05:40.569Z,-5.30
2022-12-13T16:08:17.541Z,-5.40
2022-12-13T16:10:49.037Z,-5.50
2022-12-13T16:16:27.157Z,-5.30
2022-12-13T16:28:50.010Z,-5.50
2022-12-13T16:31:25.395Z,-5.80
2022-12-13T16:33:52.646Z,-5.50
2022-12-13T16:38:47.004Z,-5.80
2022-12-13T16:41:14.859Z,-6.00
2022-12-13T16:43:56.635Z,-6.00
2022-12-13T16:47:16.028Z,-5.50
2022-12-13T16:49:24.274Z,-5.70
2022-12-13T16:51:51.270Z,-5.80
2022-12-13T16:54:19.624Z,-6.00
2022-12-13T16:56:46.944Z,-6.20
2022-12-13T16:59:15.389Z,-5.50
2022-12-13T17:01:43.673Z,-6.30
2022-12-13T17:04:16.538Z,-6.30
2022-12-13T17:06:47.555Z,-5.50
2022-12-13T17:09:14.314Z,-5.50
2022-12-13T17:11:41.056Z,-5.80
2022-12-13T17:14:08.089Z,-5.90
2022-12-13T17:16:35.255Z,-6.10
2022-12-13T17:19:02.229Z,-6.20
2022-12-13T17:21:29.859Z,-6.10
2022-12-13T17:23:57.994Z,-5.90
2022-12-13T17:26:25.583Z,-5.70
2022-12-13T17:28:52.717Z,-5.70
2022-12-13T17:31:20.431Z,-6.30
2022-12-13T18:23:55.837Z,-7.10
2022-12-13T18:26:24.520Z,-7.40
2022-12-13T18:28:52.063Z,-7.10
2022-12-13T18:33:48.405Z,-7.50
2022-12-13T18:36:16.503Z,-7.50
2022-12-13T18:38:43.835Z,-8.30
2022-12-13T18:41:15.949Z,-7.00
2022-12-13T18:43:44.390Z,-7.90
2022-12-13T18:46:13.442Z,-7.10
2022-12-13T18:48:40.966Z,-6.60
2022-12-13T18:51:09.223Z,-6.40
2022-12-13T18:53:37.284Z,-6.90
2022-12-13T18:56:16.120Z,-6.70
2022-12-13T18:58:45.891Z,-7.10
2022-12-13T19:01:13.601Z,-7.40
2022-12-13T19:03:43.018Z,-7.50
2022-12-13T19:06:17.098Z,-6.50
2022-12-13T19:08:47.946Z,-6.80
2022-12-13T19:11:14.804Z,-6.90
2022-12-13T19:13:41.761Z,-7.40
2022-12-13T19:16:10.634Z,-6.90
2022-12-13T19:18:37.859Z,-7.10
2022-12-13T19:21:08.795Z,-6.30
2022-12-13T19:23:35.901Z,-7.20
2022-12-13T19:26:10.270Z,-6.50
2022-12-13T19:28:38.086Z,-7.30
2022-12-13T19:31:06.517Z,-6.90
2022-12-13T19:33:33.953Z,-7.10
2022-12-13T19:36:01.643Z,-6.50
2022-12-13T19:38:28.374Z,-6.80
2022-12-13T19:40:55.547Z,-6.80
2022-12-13T19:43:22.495Z,-7.20
2022-12-13T19:45:49.454Z,-7.20
2022-12-13T19:48:16.935Z,-6.40
2022-12-13T19:50:44.393Z,-7.40
2022-12-13T19:53:11.812Z,-7.30
2022-12-13T19:55:44.929Z,-6.60
2022-12-13T19:58:11.732Z,-6.70
2022-12-13T20:00:38.524Z,-7.40
2022-12-13T20:03:06.069Z,-7.10
2022-12-13T20:05:33.934Z,-7.30
2022-12-13T20:08:00.946Z,-6.30
2022-12-13T20:10:28.909Z,-6.90
2022-12-13T20:12:55.873Z,-7.40
2022-12-13T20:15:22.670Z,-6.90
2022-12-13T20:17:49.491Z,-6.30
2022-12-13T20:20:16.358Z,-6.50
2022-12-13T20:22:43.103Z,-7.70
2022-12-13T20:25:11.675Z,-6.90
2022-12-13T20:27:39.668Z,-6.90
2022-12-13T20:30:07.417Z,-6.30
2022-12-13T20:32:34.201Z,-7.00
2022-12-13T20:35:00.943Z,-7.10
2022-12-13T20:37:27.758Z,-7.30
2022-12-13T20:39:54.477Z,-6.40
2022-12-13T20:42:21.200Z,-7.30
2022-12-13T20:44:47.895Z,-7.00
2022-12-13T20:47:14.587Z,-6.90
2022-12-13T20:49:41.375Z,-6.50
2022-12-13T20:52:08.111Z,-6.40
2022-12-13T20:54:36.077Z,-6.90
2022-12-13T20:57:02.889Z,-6.90
2022-12-13T20:59:29.622Z,-7.10
2022-12-13T21:01:56.381Z,-6.10
2022-12-13T21:04:23.149Z,-6.80
2022-12-13T21:06:49.975Z,-7.00
2022-12-13T21:09:16.787Z,-6.90
2022-12-13T21:11:46.736Z,-7.10
2022-12-13T21:14:22.475Z,-6.10
2022-12-13T21:16:58.101Z,-6.70
2022-12-13T21:19:27.203Z,-6.70
2022-12-13T21:21:55.067Z,-6.70
2022-12-13T21:24:23.025Z,-6.40
2022-12-13T21:26:51.207Z,-6.10
2022-12-13T21:29:18.769Z,-6.20
2022-12-13T21:31:49.698Z,-5.90
2022-12-13T21:34:17.589Z,-7.00
2022-12-13T21:36:46.951Z,-6.50
2022-12-13T21:39:16.742Z,-7.00
2022-12-13T21:41:44.314Z,-6.90
2022-12-13T21:44:12.804Z,-6.80
2022-12-13T21:49:26.447Z,-6.40
2022-12-13T21:51:53.348Z,-6.80
2022-12-13T21:54:20.267Z,-6.20
2022-12-13T21:57:05.557Z,-6.40
2022-12-13T21:59:32.320Z,-5.50
2022-12-13T22:02:14.265Z,-5.90
2022-12-13T22:04:55.094Z,-6.10
2022-12-13T22:07:30.620Z,-6.20
2022-12-13T22:10:02.376Z,-6.20
2022-12-13T22:12:37.604Z,-6.10
2022-12-13T22:15:06.563Z,-5.60
2022-12-13T22:17:36.137Z,-6.10
2022-12-13T22:20:09.344Z,-5.70
2022-12-13T22:22:38.575Z,-6.00
2022-12-13T22:25:06.715Z,-6.00
2022-12-13T22:27:33.435Z,-6.20
2022-12-13T22:30:00.333Z,-6.00
2022-12-13T22:32:29.039Z,-5.90
2022-12-13T22:34:56.059Z,-6.30
2022-12-13T22:37:23.799Z,-5.70
2022-12-13T22:39:50.892Z,-5.60
2022-12-13T22:42:17.606Z,-5.60
2022-12-13T22:44:44.463Z,-6.10
2022-12-13T22:47:11.180Z,-5.80
2022-12-13T22:49:38.034Z,-6.10
2022-12-13T22:52:05.337Z,-5.50
2022-12-13T22:56:59.296Z,-6.00
2022-12-13T22:59:26.000Z,-5.50
2022-12-13T23:01:59.812Z,-6.00
2022-12-13T23:04:29.676Z,-5.80
2022-12-13T23:06:56.389Z,-6.00
2022-12-13T23:09:23.096Z,-5.30
2022-12-13T23:14:35.621Z,-5.70
2022-12-13T23:17:03.108Z,-5.20
2022-12-13T23:19:48.956Z,-5.60
2022-12-13T23:22:16.943Z,-5.60
2022-12-13T23:29:38.305Z,-5.70
2022-12-13T23:32:05.151Z,-5.70
2022-12-13T23:34:32.331Z,-5.50
2022-12-13T23:36:59.234Z,-5.60
2022-12-13T23:39:25.953Z,-5.30
2022-12-13T23:44:19.849Z,-5.40
2022-12-13T23:54:14.581Z,-5.20
2022-12-13T23:59:08.690Z,-5.10
